sensor_id;sensor_type;location;lat;lon;timestamp;pressure;altitude;pressure_sealevel;temperature;humidity
26436;BME280;15351;52.408;16.826;2023-03-21T00:00:33;100815.89;;;11.59;72.28
26436;BME280;15351;52.408;16.826;2023-03-21T00:03:25;100817.56;;;11.53;72.49
26436;BME280;15351;52.408;16.826;2023-03-21T00:06:18;100818.23;;;11.46;72.48
26436;BME280;15351;52.408;16.826;2023-03-21T00:09:13;100815.54;;;11.45;72.75
26436;BME280;15351;52.408;16.826;2023-03-21T00:12:02;100817.08;;;11.48;72.94
26436;BME280;15351;52.408;16.826;2023-03-21T00:14:56;100818.77;;;11.54;72.99
26436;BME280;15351;52.408;16.826;2023-03-21T00:17:35;100812.88;;;11.52;72.64
26436;BME280;15351;52.408;16.826;2023-03-21T00:20:33;100814.20;;;11.48;72.59
26436;BME280;15351;52.408;16.826;2023-03-21T00:23:47;100816.45;;;11.44;72.92
26436;BME280;15351;52.408;16.826;2023-03-21T00:26:35;100816.48;;;11.46;72.74
26436;BME280;15351;52.408;16.826;2023-03-21T00:32:27;100806.20;;;11.43;72.72
26436;BME280;15351;52.408;16.826;2023-03-21T00:35:17;100809.89;;;11.40;72.88
26436;BME280;15351;52.408;16.826;2023-03-21T00:41:32;100810.86;;;11.38;73.14
26436;BME280;15351;52.408;16.826;2023-03-21T00:46:55;100808.20;;;11.31;73.42
26436;BME280;15351;52.408;16.826;2023-03-21T00:49:33;100810.59;;;11.31;73.55
26436;BME280;15351;52.408;16.826;2023-03-21T00:52:51;100807.39;;;11.31;73.50
26436;BME280;15351;52.408;16.826;2023-03-21T00:55:29;100809.55;;;11.27;73.48
26436;BME280;15351;52.408;16.826;2023-03-21T00:58:43;100813.76;;;11.21;73.56
26436;BME280;15351;52.408;16.826;2023-03-21T01:01:22;100808.49;;;11.24;73.81
26436;BME280;15351;52.408;16.826;2023-03-21T01:03:54;100811.10;;;11.31;73.88
26436;BME280;15351;52.408;16.826;2023-03-21T01:06:28;100810.73;;;11.38;73.69
26436;BME280;15351;52.408;16.826;2023-03-21T01:09:20;100811.55;;;11.43;73.50
26436;BME280;15351;52.408;16.826;2023-03-21T01:11:55;100814.42;;;11.45;73.39
26436;BME280;15351;52.408;16.826;2023-03-21T01:22:04;100812.47;;;11.51;73.00
26436;BME280;15351;52.408;16.826;2023-03-21T01:28:52;100809.14;;;11.48;73.01
26436;BME280;15351;52.408;16.826;2023-03-21T01:31:45;100807.62;;;11.49;72.87
26436;BME280;15351;52.408;16.826;2023-03-21T01:34:35;100814.19;;;11.51;72.58
26436;BME280;15351;52.408;16.826;2023-03-21T01:38:00;100815.50;;;11.45;72.59
26436;BME280;15351;52.408;16.826;2023-03-21T01:40:39;100815.84;;;11.45;72.85
26436;BME280;15351;52.408;16.826;2023-03-21T01:50:09;100811.23;;;11.41;72.42
26436;BME280;15351;52.408;16.826;2023-03-21T01:53:15;100809.00;;;11.40;72.68
26436;BME280;15351;52.408;16.826;2023-03-21T01:57:12;100808.30;;;11.40;72.75
26436;BME280;15351;52.408;16.826;2023-03-21T02:03:00;100806.98;;;11.39;72.64
26436;BME280;15351;52.408;16.826;2023-03-21T02:09:56;100797.36;;;11.32;72.77
26436;BME280;15351;52.408;16.826;2023-03-21T02:13:26;100799.65;;;11.31;72.41
26436;BME280;15351;52.408;16.826;2023-03-21T02:28:35;100796.83;;;11.33;72.65
26436;BME280;15351;52.408;16.826;2023-03-21T02:49:43;100796.95;;;11.26;72.34
26436;BME280;15351;52.408;16.826;2023-03-21T02:52:49;100792.64;;;11.27;72.34
26436;BME280;15351;52.408;16.826;2023-03-21T02:55:26;100795.39;;;11.25;72.05
26436;BME280;15351;52.408;16.826;2023-03-21T03:02:31;100798.91;;;11.20;72.44
26436;BME280;15351;52.408;16.826;2023-03-21T03:05:34;100802.77;;;11.18;72.23
26436;BME280;15351;52.408;16.826;2023-03-21T03:09:16;100801.53;;;11.15;72.22
26436;BME280;15351;52.408;16.826;2023-03-21T03:26:36;100806.17;;;11.07;72.44
26436;BME280;15351;52.408;16.826;2023-03-21T03:29:12;100800.53;;;11.07;72.47
26436;BME280;15351;52.408;16.826;2023-03-21T03:31:53;100805.83;;;11.07;72.48
26436;BME280;15351;52.408;16.826;2023-03-21T03:38:14;100807.33;;;11.02;72.52
26436;BME280;15351;52.408;16.826;2023-03-21T03:41:23;100812.87;;;10.99;72.44
26436;BME280;15351;52.408;16.826;2023-03-21T03:44:07;100810.61;;;10.97;72.42
26436;BME280;15351;52.408;16.826;2023-03-21T03:47:15;100811.64;;;10.92;72.17
26436;BME280;15351;52.408;16.826;2023-03-21T03:52:45;100808.14;;;10.80;72.58
26436;BME280;15351;52.408;16.826;2023-03-21T03:58:44;100817.03;;;10.71;72.80
26436;BME280;15351;52.408;16.826;2023-03-21T04:02:23;100812.71;;;10.66;72.78
26436;BME280;15351;52.408;16.826;2023-03-21T04:08:55;100818.16;;;10.56;73.28
26436;BME280;15351;52.408;16.826;2023-03-21T04:14:54;100822.14;;;10.47;73.48
26436;BME280;15351;52.408;16.826;2023-03-21T04:18:15;100826.31;;;10.42;73.53
26436;BME280;15351;52.408;16.826;2023-03-21T04:24:50;100827.48;;;10.35;73.79
26436;BME280;15351;52.408;16.826;2023-03-21T04:27:59;100829.02;;;10.26;73.89
26436;BME280;15351;52.408;16.826;2023-03-21T04:31:22;100828.65;;;10.20;74.26
26436;BME280;15351;52.408;16.826;2023-03-21T04:34:33;100833.79;;;10.24;74.33
26436;BME280;15351;52.408;16.826;2023-03-21T04:37:39;100834.33;;;10.27;74.66
26436;BME280;15351;52.408;16.826;2023-03-21T04:40:34;100831.02;;;10.26;74.59
26436;BME280;15351;52.408;16.826;2023-03-21T04:43:09;100835.54;;;10.27;74.64
26436;BME280;15351;52.408;16.826;2023-03-21T04:48:36;100832.95;;;10.27;74.87
26436;BME280;15351;52.408;16.826;2023-03-21T04:51:02;100837.04;;;10.32;75.02
26436;BME280;15351;52.408;16.826;2023-03-21T04:53:40;100839.59;;;10.38;74.92
26436;BME280;15351;52.408;16.826;2023-03-21T04:56:32;100839.73;;;10.40;74.92
26436;BME280;15351;52.408;16.826;2023-03-21T04:59:10;100837.14;;;10.40;74.89
26436;BME280;15351;52.408;16.826;2023-03-21T05:05:29;100842.39;;;10.40;75.06
26436;BME280;15351;52.408;16.826;2023-03-21T05:08:09;100843.23;;;10.39;74.70
26436;BME280;15351;52.408;16.826;2023-03-21T05:10:38;100842.33;;;10.37;74.84
26436;BME280;15351;52.408;16.826;2023-03-21T05:13:05;100848.08;;;10.36;74.88
26436;BME280;15351;52.408;16.826;2023-03-21T05:15:44;100844.91;;;10.32;74.92
26436;BME280;15351;52.408;16.826;2023-03-21T05:18:31;100842.68;;;10.28;75.25
26436;BME280;15351;52.408;16.826;2023-03-21T05:21:39;100845.85;;;10.25;75.34
26436;BME280;15351;52.408;16.826;2023-03-21T05:24:45;100850.96;;;10.23;75.44
26436;BME280;15351;52.408;16.826;2023-03-21T05:27:47;100848.51;;;10.24;75.65
26436;BME280;15351;52.408;16.826;2023-03-21T05:30:30;100852.81;;;10.22;75.78
26436;BME280;15351;52.408;16.826;2023-03-21T05:33:00;100852.08;;;10.19;75.97
26436;BME280;15351;52.408;16.826;2023-03-21T05:35:28;100851.30;;;10.18;76.19
26436;BME280;15351;52.408;16.826;2023-03-21T05:37:58;100854.94;;;10.16;76.08
26436;BME280;15351;52.408;16.826;2023-03-21T05:40:45;100855.64;;;10.13;76.23
26436;BME280;15351;52.408;16.826;2023-03-21T05:44:16;100857.96;;;10.16;76.78
26436;BME280;15351;52.408;16.826;2023-03-21T05:47:26;100859.34;;;10.19;76.78
26436;BME280;15351;52.408;16.826;2023-03-21T05:53:16;100859.18;;;10.22;76.81
26436;BME280;15351;52.408;16.826;2023-03-21T05:55:46;100862.30;;;10.19;76.94
26436;BME280;15351;52.408;16.826;2023-03-21T05:58:22;100864.81;;;10.21;77.08
26436;BME280;15351;52.408;16.826;2023-03-21T06:01:35;100870.81;;;10.22;77.10
26436;BME280;15351;52.408;16.826;2023-03-21T06:04:32;100877.29;;;10.24;77.31
26436;BME280;15351;52.408;16.826;2023-03-21T06:07:27;100876.90;;;10.31;77.36
26436;BME280;15351;52.408;16.826;2023-03-21T06:10:14;100875.91;;;10.33;77.25
26436;BME280;15351;52.408;16.826;2023-03-21T06:13:07;100875.18;;;10.35;77.41
26436;BME280;15351;52.408;16.826;2023-03-21T06:15:36;100873.67;;;10.37;77.40
26436;BME280;15351;52.408;16.826;2023-03-21T06:18:17;100874.38;;;10.43;77.60
26436;BME280;15351;52.408;16.826;2023-03-21T06:21:27;100876.58;;;10.44;77.45
26436;BME280;15351;52.408;16.826;2023-03-21T06:28:39;100877.01;;;10.35;77.51
26436;BME280;15351;52.408;16.826;2023-03-21T06:31:55;100880.89;;;10.37;77.83
26436;BME280;15351;52.408;16.826;2023-03-21T06:35:08;100876.77;;;10.46;77.98
26436;BME280;15351;52.408;16.826;2023-03-21T06:37:52;100873.20;;;10.60;77.88
26436;BME280;15351;52.408;16.826;2023-03-21T06:41:14;100882.32;;;10.62;77.48
26436;BME280;15351;52.408;16.826;2023-03-21T06:44:25;100881.94;;;10.62;77.65
26436;BME280;15351;52.408;16.826;2023-03-21T06:47:26;100880.91;;;10.72;77.64
26436;BME280;15351;52.408;16.826;2023-03-21T06:49:53;100883.71;;;10.76;77.53
26436;BME280;15351;52.408;16.826;2023-03-21T06:52:20;100882.29;;;10.80;77.52
26436;BME280;15351;52.408;16.826;2023-03-21T06:55:31;100882.19;;;10.86;77.20
26436;BME280;15351;52.408;16.826;2023-03-21T06:58:16;100883.47;;;10.87;77.14
26436;BME280;15351;52.408;16.826;2023-03-21T07:01:16;100888.54;;;10.93;77.25
26436;BME280;15351;52.408;16.826;2023-03-21T07:03:53;100888.35;;;11.01;77.26
26436;BME280;15351;52.408;16.826;2023-03-21T07:09:59;100896.80;;;11.14;76.48
26436;BME280;15351;52.408;16.826;2023-03-21T07:12:43;100898.89;;;11.04;76.16
26436;BME280;15351;52.408;16.826;2023-03-21T07:15:49;100901.55;;;11.01;76.33
26436;BME280;15351;52.408;16.826;2023-03-21T07:18:16;100900.08;;;11.09;76.66
26436;BME280;15351;52.408;16.826;2023-03-21T07:20:46;100905.38;;;11.15;76.43
26436;BME280;15351;52.408;16.826;2023-03-21T07:23:45;100905.81;;;11.17;76.06
26436;BME280;15351;52.408;16.826;2023-03-21T07:26:26;100907.08;;;11.10;75.86
26436;BME280;15351;52.408;16.826;2023-03-21T07:28:54;100907.61;;;11.11;76.13
26436;BME280;15351;52.408;16.826;2023-03-21T07:31:45;100915.59;;;11.10;76.17
26436;BME280;15351;52.408;16.826;2023-03-21T07:34:12;100916.92;;;11.14;75.88
26436;BME280;15351;52.408;16.826;2023-03-21T07:36:41;100916.61;;;11.17;76.05
26436;BME280;15351;52.408;16.826;2023-03-21T07:39:12;100919.77;;;11.24;75.97
26436;BME280;15351;52.408;16.826;2023-03-21T07:41:39;100914.71;;;11.26;76.12
26436;BME280;15351;52.408;16.826;2023-03-21T07:44:54;100919.44;;;11.30;75.91
26436;BME280;15351;52.408;16.826;2023-03-21T07:48:02;100921.73;;;11.32;75.59
26436;BME280;15351;52.408;16.826;2023-03-21T07:54:18;100924.43;;;11.32;75.65
26436;BME280;15351;52.408;16.826;2023-03-21T07:57:19;100922.19;;;11.35;75.72
26436;BME280;15351;52.408;16.826;2023-03-21T08:00:19;100919.67;;;11.41;75.73
26436;BME280;15351;52.408;16.826;2023-03-21T08:03:26;100923.61;;;11.41;75.40
26436;BME280;15351;52.408;16.826;2023-03-21T08:06:02;100923.82;;;11.42;75.46
26436;BME280;15351;52.408;16.826;2023-03-21T08:09:04;100922.60;;;11.50;75.72
26436;BME280;15351;52.408;16.826;2023-03-21T08:11:51;100921.05;;;11.54;75.46
26436;BME280;15351;52.408;16.826;2023-03-21T08:15:05;100920.48;;;11.58;75.13
26436;BME280;15351;52.408;16.826;2023-03-21T08:18:09;100922.29;;;11.53;75.05
26436;BME280;15351;52.408;16.826;2023-03-21T08:20:36;100921.83;;;11.50;75.10
26436;BME280;15351;52.408;16.826;2023-03-21T08:23:06;100926.99;;;11.51;75.03
26436;BME280;15351;52.408;16.826;2023-03-21T08:25:58;100929.88;;;11.45;75.05
26436;BME280;15351;52.408;16.826;2023-03-21T08:28:32;100936.10;;;11.40;75.01
26436;BME280;15351;52.408;16.826;2023-03-21T08:31:06;100935.63;;;11.34;74.63
26436;BME280;15351;52.408;16.826;2023-03-21T08:33:40;100941.84;;;11.22;74.90
26436;BME280;15351;52.408;16.826;2023-03-21T08:36:51;100942.08;;;11.23;75.22
26436;BME280;15351;52.408;16.826;2023-03-21T08:39:21;100940.44;;;11.31;75.56
26436;BME280;15351;52.408;16.826;2023-03-21T08:41:49;100947.12;;;11.40;75.34
26436;BME280;15351;52.408;16.826;2023-03-21T08:44:20;100946.66;;;11.48;75.00
26436;BME280;15351;52.408;16.826;2023-03-21T08:47:10;100943.37;;;11.57;74.96
26436;BME280;15351;52.408;16.826;2023-03-21T08:49:46;100943.18;;;11.61;74.85
26436;BME280;15351;52.408;16.826;2023-03-21T08:52:19;100941.27;;;11.66;74.83
26436;BME280;15351;52.408;16.826;2023-03-21T08:54:49;100945.52;;;11.68;74.53
26436;BME280;15351;52.408;16.826;2023-03-21T08:57:39;100947.64;;;11.63;74.11
26436;BME280;15351;52.408;16.826;2023-03-21T09:00:26;100949.92;;;11.53;74.13
26436;BME280;15351;52.408;16.826;2023-03-21T09:03:12;100948.10;;;11.52;74.30
26436;BME280;15351;52.408;16.826;2023-03-21T09:06:14;100947.02;;;11.52;74.42
26436;BME280;15351;52.408;16.826;2023-03-21T09:08:57;100950.58;;;11.59;74.40
26436;BME280;15351;52.408;16.826;2023-03-21T09:11:57;100954.83;;;11.67;74.46
26436;BME280;15351;52.408;16.826;2023-03-21T09:14:24;100953.63;;;11.70;74.31
26436;BME280;15351;52.408;16.826;2023-03-21T09:16:51;100957.73;;;11.73;74.25
26436;BME280;15351;52.408;16.826;2023-03-21T09:19:22;100957.42;;;11.73;74.02
26436;BME280;15351;52.408;16.826;2023-03-21T09:21:51;100953.03;;;11.78;74.20
26436;BME280;15351;52.408;16.826;2023-03-21T09:24:19;100952.17;;;11.84;74.05
26436;BME280;15351;52.408;16.826;2023-03-21T09:26:54;100957.30;;;11.97;74.19
26436;BME280;15351;52.408;16.826;2023-03-21T09:29:24;100955.05;;;12.09;73.98
26436;BME280;15351;52.408;16.826;2023-03-21T09:31:50;100959.15;;;12.18;73.67
26436;BME280;15351;52.408;16.826;2023-03-21T09:34:22;100959.28;;;12.20;73.14
26436;BME280;15351;52.408;16.826;2023-03-21T09:36:48;100959.84;;;12.13;73.04
26436;BME280;15351;52.408;16.826;2023-03-21T09:39:42;100962.35;;;12.19;73.30
26436;BME280;15351;52.408;16.826;2023-03-21T09:42:47;100958.90;;;12.31;73.60
26436;BME280;15351;52.408;16.826;2023-03-21T09:53:01;100956.53;;;12.45;72.49
26436;BME280;15351;52.408;16.826;2023-03-21T09:55:39;100954.67;;;12.33;72.05
26436;BME280;15351;52.408;16.826;2023-03-21T09:58:33;100955.98;;;12.31;72.17
26436;BME280;15351;52.408;16.826;2023-03-21T10:07:40;100953.64;;;12.41;72.04
26436;BME280;15351;52.408;16.826;2023-03-21T10:10:21;100951.21;;;12.46;71.73
26436;BME280;15351;52.408;16.826;2023-03-21T10:13:00;100949.02;;;12.44;71.74
26436;BME280;15351;52.408;16.826;2023-03-21T10:15:27;100947.09;;;12.53;71.81
26436;BME280;15351;52.408;16.826;2023-03-21T10:18:20;100946.95;;;12.56;71.63
26436;BME280;15351;52.408;16.826;2023-03-21T10:20:48;100948.52;;;12.58;71.25
26436;BME280;15351;52.408;16.826;2023-03-21T10:23:18;100946.10;;;12.61;70.79
26436;BME280;15351;52.408;16.826;2023-03-21T10:25:53;100949.85;;;12.65;70.52
26436;BME280;15351;52.408;16.826;2023-03-21T10:28:27;100949.10;;;12.63;70.52
26436;BME280;15351;52.408;16.826;2023-03-21T10:31:29;100949.70;;;12.69;70.63
26436;BME280;15351;52.408;16.826;2023-03-21T10:34:40;100949.06;;;12.81;71.05
26436;BME280;15351;52.408;16.826;2023-03-21T10:37:13;100949.52;;;12.95;70.81
26436;BME280;15351;52.408;16.826;2023-03-21T10:39:45;100948.54;;;12.99;70.31
26436;BME280;15351;52.408;16.826;2023-03-21T10:42:36;100950.73;;;12.98;69.76
26436;BME280;15351;52.408;16.826;2023-03-21T10:45:26;100948.83;;;13.05;69.77
26436;BME280;15351;52.408;16.826;2023-03-21T10:48:10;100945.60;;;13.06;69.41
26436;BME280;15351;52.408;16.826;2023-03-21T10:50:40;100945.11;;;13.03;69.02
26436;BME280;15351;52.408;16.826;2023-03-21T10:53:31;100944.21;;;13.02;68.92
26436;BME280;15351;52.408;16.826;2023-03-21T10:56:05;100948.73;;;13.04;68.69
26436;BME280;15351;52.408;16.826;2023-03-21T10:58:48;100948.79;;;13.10;68.81
26436;BME280;15351;52.408;16.826;2023-03-21T11:01:41;100942.85;;;13.23;69.03
26436;BME280;15351;52.408;16.826;2023-03-21T11:04:42;100939.45;;;13.46;69.25
26436;BME280;15351;52.408;16.826;2023-03-21T11:07:12;100938.63;;;13.58;67.97
26436;BME280;15351;52.408;16.826;2023-03-21T11:09:49;100933.61;;;13.66;67.24
26436;BME280;15351;52.408;16.826;2023-03-21T11:12:45;100929.40;;;13.72;66.45
26436;BME280;15351;52.408;16.826;2023-03-21T11:15:42;100931.20;;;13.79;66.20
26436;BME280;15351;52.408;16.826;2023-03-21T11:18:25;100932.19;;;13.83;65.42
26436;BME280;15351;52.408;16.826;2023-03-21T11:21:19;100933.43;;;13.76;65.18
26436;BME280;15351;52.408;16.826;2023-03-21T11:25:21;100925.42;;;13.79;65.15
26436;BME280;15351;52.408;16.826;2023-03-21T11:28:15;100923.84;;;13.93;65.55
26436;BME280;15351;52.408;16.826;2023-03-21T11:31:20;100920.34;;;14.01;65.04
26436;BME280;15351;52.408;16.826;2023-03-21T11:33:54;100918.33;;;14.08;64.71
26436;BME280;15351;52.408;16.826;2023-03-21T11:36:52;100915.09;;;14.15;64.23
26436;BME280;15351;52.408;16.826;2023-03-21T11:39:31;100913.90;;;14.25;64.16
26436;BME280;15351;52.408;16.826;2023-03-21T11:56:25;100901.91;;;13.94;62.28
26436;BME280;15351;52.408;16.826;2023-03-21T12:05:20;100889.00;;;13.91;62.76
26436;BME280;15351;52.408;16.826;2023-03-21T12:15:39;100892.54;;;13.95;61.27
26436;BME280;15351;52.408;16.826;2023-03-21T12:38:16;100871.82;;;14.08;60.62
26436;BME280;15351;52.408;16.826;2023-03-21T12:41:25;100866.89;;;14.06;60.37
26436;BME280;15351;52.408;16.826;2023-03-21T12:44:28;100865.40;;;14.03;60.49
26436;BME280;15351;52.408;16.826;2023-03-21T12:47:40;100862.42;;;14.00;60.46
26436;BME280;15351;52.408;16.826;2023-03-21T12:53:50;100858.11;;;14.02;60.64
26436;BME280;15351;52.408;16.826;2023-03-21T13:00:35;100852.20;;;13.96;60.62
26436;BME280;15351;52.408;16.826;2023-03-21T13:03:45;100851.20;;;13.90;60.68
26436;BME280;15351;52.408;16.826;2023-03-21T13:06:22;100848.39;;;13.85;60.92
26436;BME280;15351;52.408;16.826;2023-03-21T13:09:15;100845.73;;;13.86;61.30
26436;BME280;15351;52.408;16.826;2023-03-21T13:16:16;100835.52;;;13.91;61.55
26436;BME280;15351;52.408;16.826;2023-03-21T13:19:30;100834.20;;;13.87;61.51
26436;BME280;15351;52.408;16.826;2023-03-21T13:26:54;100827.87;;;13.77;61.83
26436;BME280;15351;52.408;16.826;2023-03-21T13:30:41;100830.31;;;13.73;62.06
26436;BME280;15351;52.408;16.826;2023-03-21T13:33:31;100823.26;;;13.70;62.27
26436;BME280;15351;52.408;16.826;2023-03-21T13:36:27;100817.33;;;13.70;62.18
26436;BME280;15351;52.408;16.826;2023-03-21T13:39:18;100816.54;;;13.73;62.62
26436;BME280;15351;52.408;16.826;2023-03-21T13:42:50;100810.21;;;13.75;62.43
26436;BME280;15351;52.408;16.826;2023-03-21T13:45:54;100808.11;;;13.80;62.39
26436;BME280;15351;52.408;16.826;2023-03-21T14:10:51;100802.35;;;13.96;62.63
26436;BME280;15351;52.408;16.826;2023-03-21T14:17:28;100795.41;;;13.93;61.72
26436;BME280;15351;52.408;16.826;2023-03-21T14:23:56;100792.10;;;13.85;61.82
26436;BME280;15351;52.408;16.826;2023-03-21T14:26:30;100787.31;;;13.86;61.73
26436;BME280;15351;52.408;16.826;2023-03-21T14:29:45;100782.35;;;13.83;61.39
26436;BME280;15351;52.408;16.826;2023-03-21T14:32:56;100780.27;;;13.80;61.79
26436;BME280;15351;52.408;16.826;2023-03-21T14:36:05;100777.70;;;13.78;61.62
26436;BME280;15351;52.408;16.826;2023-03-21T14:39:32;100777.87;;;13.76;61.60
26436;BME280;15351;52.408;16.826;2023-03-21T14:42:46;100773.52;;;13.73;61.63
26436;BME280;15351;52.408;16.826;2023-03-21T14:45:28;100766.73;;;13.70;61.33
26436;BME280;15351;52.408;16.826;2023-03-21T14:48:15;100766.14;;;13.68;61.14
26436;BME280;15351;52.408;16.826;2023-03-21T14:51:13;100765.41;;;13.68;61.59
26436;BME280;15351;52.408;16.826;2023-03-21T14:54:16;100767.81;;;13.62;61.49
26436;BME280;15351;52.408;16.826;2023-03-21T14:57:29;100767.42;;;13.53;61.42
26436;BME280;15351;52.408;16.826;2023-03-21T15:04:31;100764.71;;;13.40;61.83
26436;BME280;15351;52.408;16.826;2023-03-21T15:07:02;100766.16;;;13.36;61.93
26436;BME280;15351;52.408;16.826;2023-03-21T15:09:32;100765.34;;;13.37;62.25
26436;BME280;15351;52.408;16.826;2023-03-21T15:12:09;100766.87;;;13.36;62.32
26436;BME280;15351;52.408;16.826;2023-03-21T15:18:15;100766.27;;;13.35;62.10
26436;BME280;15351;52.408;16.826;2023-03-21T15:21:44;100759.73;;;13.36;62.12
26436;BME280;15351;52.408;16.826;2023-03-21T15:24:58;100760.09;;;13.37;62.10
26436;BME280;15351;52.408;16.826;2023-03-21T15:28:00;100762.61;;;13.33;62.19
26436;BME280;15351;52.408;16.826;2023-03-21T15:30:45;100758.10;;;13.25;62.36
26436;BME280;15351;52.408;16.826;2023-03-21T15:33:30;100763.50;;;13.22;62.55
26436;BME280;15351;52.408;16.826;2023-03-21T15:36:08;100763.58;;;13.21;62.57
26436;BME280;15351;52.408;16.826;2023-03-21T15:38:51;100764.70;;;13.16;62.78
26436;BME280;15351;52.408;16.826;2023-03-21T15:41:38;100762.59;;;13.13;63.15
26436;BME280;15351;52.408;16.826;2023-03-21T15:44:28;100760.92;;;13.13;63.27
26436;BME280;15351;52.408;16.826;2023-03-21T15:47:07;100760.23;;;13.16;63.48
26436;BME280;15351;52.408;16.826;2023-03-21T15:49:39;100763.06;;;13.18;63.32
26436;BME280;15351;52.408;16.826;2023-03-21T15:52:39;100761.36;;;13.14;63.28
26436;BME280;15351;52.408;16.826;2023-03-21T15:55:53;100762.27;;;13.11;63.39
26436;BME280;15351;52.408;16.826;2023-03-21T15:58:36;100759.04;;;13.06;63.67
26436;BME280;15351;52.408;16.826;2023-03-21T16:01:15;100758.71;;;13.02;63.70
26436;BME280;15351;52.408;16.826;2023-03-21T16:03:48;100760.81;;;13.02;64.13
26436;BME280;15351;52.408;16.826;2023-03-21T16:07:18;100759.85;;;13.08;64.23
26436;BME280;15351;52.408;16.826;2023-03-21T16:10:34;100754.92;;;13.15;64.17
26436;BME280;15351;52.408;16.826;2023-03-21T16:13:13;100755.39;;;13.12;64.11
26436;BME280;15351;52.408;16.826;2023-03-21T16:15:42;100756.29;;;13.09;64.25
26436;BME280;15351;52.408;16.826;2023-03-21T16:18:14;100750.21;;;13.07;64.38
26436;BME280;15351;52.408;16.826;2023-03-21T16:20:46;100748.06;;;13.03;64.44
26436;BME280;15351;52.408;16.826;2023-03-21T16:23:27;100743.05;;;13.03;64.64
26436;BME280;15351;52.408;16.826;2023-03-21T16:25:54;100745.60;;;13.03;64.54
26436;BME280;15351;52.408;16.826;2023-03-21T16:28:24;100745.52;;;13.01;64.56
26436;BME280;15351;52.408;16.826;2023-03-21T16:30:54;100744.86;;;12.99;64.59
26436;BME280;15351;52.408;16.826;2023-03-21T16:33:20;100746.55;;;13.00;64.85
26436;BME280;15351;52.408;16.826;2023-03-21T16:36:18;100747.27;;;12.98;65.00
26436;BME280;15351;52.408;16.826;2023-03-21T16:38:46;100748.17;;;13.00;65.21
26436;BME280;15351;52.408;16.826;2023-03-21T16:41:15;100752.08;;;13.02;65.42
26436;BME280;15351;52.408;16.826;2023-03-21T16:46:47;100746.89;;;12.98;65.36
26436;BME280;15351;52.408;16.826;2023-03-21T16:49:36;100744.15;;;12.97;65.66
26436;BME280;15351;52.408;16.826;2023-03-21T16:52:16;100745.28;;;12.95;66.00
26436;BME280;15351;52.408;16.826;2023-03-21T16:58:14;100741.84;;;13.00;66.28
26436;BME280;15351;52.408;16.826;2023-03-21T17:01:16;100742.63;;;12.99;66.18
26436;BME280;15351;52.408;16.826;2023-03-21T17:03:55;100740.73;;;12.94;65.97
26436;BME280;15351;52.408;16.826;2023-03-21T17:06:51;100740.83;;;12.93;66.22
26436;BME280;15351;52.408;16.826;2023-03-21T17:09:46;100738.20;;;12.90;66.06
26436;BME280;15351;52.408;16.826;2023-03-21T17:12:14;100733.42;;;12.87;66.01
26436;BME280;15351;52.408;16.826;2023-03-21T17:15:00;100736.51;;;12.90;65.79
26436;BME280;15351;52.408;16.826;2023-03-21T17:17:35;100742.29;;;12.87;65.60
26436;BME280;15351;52.408;16.826;2023-03-21T17:20:31;100740.44;;;12.83;65.89
26436;BME280;15351;52.408;16.826;2023-03-21T17:22:57;100741.67;;;12.82;66.03
26436;BME280;15351;52.408;16.826;2023-03-21T17:25:29;100740.66;;;12.81;66.28
26436;BME280;15351;52.408;16.826;2023-03-21T17:27:56;100739.35;;;12.80;66.34
26436;BME280;15351;52.408;16.826;2023-03-21T17:30:32;100742.33;;;12.78;66.48
26436;BME280;15351;52.408;16.826;2023-03-21T17:33:07;100739.39;;;12.77;66.43
26436;BME280;15351;52.408;16.826;2023-03-21T17:35:37;100748.68;;;12.75;66.57
26436;BME280;15351;52.408;16.826;2023-03-21T17:38:14;100750.06;;;12.73;66.70
26436;BME280;15351;52.408;16.826;2023-03-21T17:40:56;100751.77;;;12.75;66.91
26436;BME280;15351;52.408;16.826;2023-03-21T17:43:28;100747.08;;;12.76;66.95
26436;BME280;15351;52.408;16.826;2023-03-21T17:45:55;100748.31;;;12.78;66.99
26436;BME280;15351;52.408;16.826;2023-03-21T17:48:25;100746.89;;;12.75;66.66
26436;BME280;15351;52.408;16.826;2023-03-21T17:50:52;100747.46;;;12.75;66.80
26436;BME280;15351;52.408;16.826;2023-03-21T17:53:19;100749.49;;;12.71;67.02
26436;BME280;15351;52.408;16.826;2023-03-21T17:55:50;100748.75;;;12.74;67.21
26436;BME280;15351;52.408;16.826;2023-03-21T17:58:44;100747.25;;;12.76;66.96
26436;BME280;15351;52.408;16.826;2023-03-21T18:01:13;100747.66;;;12.73;66.84
26436;BME280;15351;52.408;16.826;2023-03-21T18:03:40;100753.25;;;12.69;66.70
26436;BME280;15351;52.408;16.826;2023-03-21T18:06:19;100751.81;;;12.67;66.98
26436;BME280;15351;52.408;16.826;2023-03-21T18:09:19;100752.14;;;12.64;66.89
26436;BME280;15351;52.408;16.826;2023-03-21T18:12:07;100750.86;;;12.64;67.01
26436;BME280;15351;52.408;16.826;2023-03-21T18:14:34;100756.45;;;12.69;66.95
26436;BME280;15351;52.408;16.826;2023-03-21T18:17:49;100755.79;;;12.72;67.06
26436;BME280;15351;52.408;16.826;2023-03-21T18:20:21;100762.23;;;12.70;66.95
26436;BME280;15351;52.408;16.826;2023-03-21T18:22:49;100760.59;;;12.69;67.25
26436;BME280;15351;52.408;16.826;2023-03-21T18:25:35;100765.03;;;12.71;67.37
26436;BME280;15351;52.408;16.826;2023-03-21T18:28:04;100760.94;;;12.71;67.36
26436;BME280;15351;52.408;16.826;2023-03-21T18:30:53;100760.45;;;12.69;67.29
26436;BME280;15351;52.408;16.826;2023-03-21T18:33:41;100759.16;;;12.67;67.46